Time;durP1;ratioP1;P1;durP2;ratioP2;P2;SDS_P1;SDS_P2;PMS_P1;PMS_P2;Temp;Humidity;BMP_temperature;BMP_pressure;BME280_temperature;BME280_humidity;BME280_pressure;Samples;Min_cycle;Max_cycle;Signal;HPM_P1;HPM_P2
2023/08/11 00:00:42;;;;;;;4.35;2.55;;;17.60;99.90;;;;;;5004384;28;20500;-71
2023/08/11 00:03:08;;;;;;;5.45;2.28;;;17.60;99.90;;;;;;5007460;28;20473;-71
2023/08/11 00:05:37;;;;;;;3.33;2.40;;;17.60;99.90;;;;;;4996370;28;20045;-71
2023/08/11 00:08:05;;;;;;;5.93;2.53;;;17.60;99.90;;;;;;5002124;28;20029;-71
2023/08/11 00:10:32;;;;;;;3.33;2.03;;;17.60;99.90;;;;;;5003200;28;20029;-72
2023/08/11 00:12:58;;;;;;;5.70;1.98;;;17.60;99.90;;;;;;5008789;28;20053;-71
2023/08/11 00:15:24;;;;;;;4.55;2.30;;;17.50;99.90;;;;;;5005169;28;20061;-72
2023/08/11 00:17:53;;;;;;;3.75;2.72;;;17.50;99.90;;;;;;4984869;28;20030;-72
2023/08/11 00:20:20;;;;;;;2.67;2.13;;;17.40;99.90;;;;;;5002878;28;20028;-71
2023/08/11 00:22:46;;;;;;;3.75;2.08;;;17.40;99.90;;;;;;5003187;28;20045;-71
2023/08/11 00:25:11;;;;;;;7.40;2.63;;;17.40;99.90;;;;;;5003738;28;20038;-71
2023/08/11 00:27:37;;;;;;;5.53;2.47;;;17.40;99.90;;;;;;5002988;28;20042;-71
2023/08/11 00:30:04;;;;;;;4.35;2.30;;;17.40;99.90;;;;;;5001009;28;20097;-71
2023/08/11 00:32:30;;;;;;;3.33;2.10;;;17.30;99.90;;;;;;4986750;28;20033;-71
2023/08/11 00:34:56;;;;;;;4.00;2.35;;;17.30;99.90;;;;;;4999592;28;20030;-71
2023/08/11 00:37:22;;;;;;;4.03;2.53;;;17.20;99.90;;;;;;5004593;28;20084;-70
2023/08/11 00:39:50;;;;;;;4.28;2.38;;;17.20;99.90;;;;;;5005422;28;20505;-71
2023/08/11 00:42:16;;;;;;;3.75;2.50;;;17.20;99.90;;;;;;5005372;28;20024;-71
2023/08/11 00:44:41;;;;;;;3.75;2.30;;;17.20;99.90;;;;;;5001008;28;20105;-71
2023/08/11 00:47:07;;;;;;;4.35;2.55;;;17.10;99.90;;;;;;5002072;28;20037;-72
2023/08/11 00:49:33;;;;;;;3.03;2.60;;;17.20;99.90;;;;;;5001892;28;20029;-72
2023/08/11 00:51:59;;;;;;;3.47;2.00;;;17.10;99.90;;;;;;5006621;28;20041;-73
2023/08/11 00:54:26;;;;;;;4.78;2.28;;;17.10;99.90;;;;;;4995823;28;20392;-72
2023/08/11 00:56:53;;;;;;;3.90;2.30;;;17.10;99.90;;;;;;5003316;28;20038;-71
2023/08/11 00:59:19;;;;;;;6.72;2.55;;;17.10;99.90;;;;;;5005689;28;20022;-72
2023/08/11 01:01:45;;;;;;;4.32;2.33;;;17.00;99.90;;;;;;5002571;28;20432;-72
2023/08/11 01:04:12;;;;;;;3.03;2.10;;;17.00;99.90;;;;;;5002675;28;20065;-72
2023/08/11 01:06:46;;;;;;;4.50;2.60;;;17.00;99.90;;;;;;4985061;28;20029;-72
2023/08/11 01:09:40;;;;;;;5.72;2.53;;;17.00;99.90;;;;;;4999343;28;20534;-72
2023/08/11 01:12:18;;;;;;;6.80;2.05;;;17.00;99.90;;;;;;5002623;28;20076;-72
2023/08/11 01:14:56;;;;;;;4.90;2.60;;;17.00;99.90;;;;;;4998603;28;20030;-72
2023/08/11 01:17:23;;;;;;;5.80;2.35;;;17.00;99.90;;;;;;4990107;28;20480;-72
2023/08/11 01:19:49;;;;;;;6.25;2.70;;;16.90;99.90;;;;;;5004208;28;20108;-71
2023/08/11 01:22:18;;;;;;;4.75;2.63;;;16.90;99.90;;;;;;5005945;28;20050;-71
2023/08/11 01:24:45;;;;;;;3.63;2.17;;;16.90;99.90;;;;;;5002808;28;20026;-72
2023/08/11 01:27:12;;;;;;;5.68;3.17;;;16.80;99.90;;;;;;5003048;28;20440;-72
2023/08/11 01:29:38;;;;;;;3.92;2.63;;;16.80;99.90;;;;;;5004867;28;20480;-72
2023/08/11 01:32:04;;;;;;;4.13;2.97;;;16.80;99.90;;;;;;5005243;28;20028;-72
2023/08/11 01:34:30;;;;;;;5.35;2.80;;;16.80;99.90;;;;;;4988835;28;20026;-72
2023/08/11 01:37:00;;;;;;;6.32;3.28;;;16.70;99.90;;;;;;4992425;28;20033;-72
2023/08/11 01:39:30;;;;;;;5.75;3.25;;;16.70;99.90;;;;;;5007378;28;20049;-72
2023/08/11 01:41:56;;;;;;;4.47;2.85;;;16.60;99.90;;;;;;5006984;28;20034;-74
2023/08/11 01:44:22;;;;;;;5.30;2.78;;;16.60;99.90;;;;;;5005887;28;20022;-72
2023/08/11 01:46:50;;;;;;;8.55;3.30;;;16.50;99.90;;;;;;5004902;28;20392;-71
2023/08/11 01:49:17;;;;;;;4.80;3.22;;;16.50;99.90;;;;;;4988839;28;20060;-71
2023/08/11 01:51:43;;;;;;;5.60;3.08;;;16.60;99.90;;;;;;5005125;28;20034;-71
2023/08/11 01:54:10;;;;;;;5.72;2.67;;;16.50;99.90;;;;;;5010508;28;20114;-71
2023/08/11 01:56:37;;;;;;;3.90;2.85;;;16.50;99.90;;;;;;4994626;28;20018;-72
2023/08/11 01:59:04;;;;;;;4.10;2.75;;;16.50;99.90;;;;;;5011105;28;20022;-72
2023/08/11 02:01:30;;;;;;;6.05;2.40;;;16.40;99.90;;;;;;5007384;28;20029;-71
2023/08/11 02:03:56;;;;;;;7.63;2.60;;;16.40;99.90;;;;;;5007117;28;20030;-71
2023/08/11 02:06:21;;;;;;;6.45;2.75;;;16.40;99.90;;;;;;5004749;28;20530;-71
2023/08/11 02:08:47;;;;;;;5.22;2.08;;;16.40;99.90;;;;;;5004908;28;20073;-71
2023/08/11 02:11:13;;;;;;;7.82;2.85;;;16.40;99.90;;;;;;5016044;28;20052;-72
2023/08/11 02:13:39;;;;;;;7.78;2.75;;;16.30;99.90;;;;;;5010202;28;20117;-71
2023/08/11 02:16:05;;;;;;;5.57;2.45;;;16.30;99.90;;;;;;5004015;28;20065;-71
2023/08/11 02:18:30;;;;;;;3.78;2.38;;;16.30;99.90;;;;;;5006060;28;20176;-72
2023/08/11 02:20:56;;;;;;;4.15;2.50;;;16.30;99.90;;;;;;5007144;28;20037;-71
2023/08/11 02:23:22;;;;;;;4.82;2.58;;;16.30;99.90;;;;;;4986729;28;20030;-71
2023/08/11 02:25:47;;;;;;;3.75;2.70;;;16.20;99.90;;;;;;5002451;28;20030;-71
2023/08/11 02:28:13;;;;;;;3.75;2.75;;;16.20;99.90;;;;;;4995378;28;20026;-71
2023/08/11 02:30:41;;;;;;;4.85;2.67;;;16.20;99.90;;;;;;5007147;28;20492;-70
2023/08/11 02:33:06;;;;;;;5.10;2.42;;;16.10;99.90;;;;;;5005211;28;20029;-72
2023/08/11 02:35:32;;;;;;;10.90;2.80;;;16.10;99.90;;;;;;5011124;28;20393;-73
2023/08/11 02:37:58;;;;;;;4.07;2.60;;;16.10;99.90;;;;;;5012208;28;20034;-72
2023/08/11 02:40:24;;;;;;;3.97;2.90;;;16.00;99.90;;;;;;5011939;28;20118;-72
2023/08/11 02:42:56;;;;;;;4.82;2.90;;;16.00;99.90;;;;;;5008915;28;20396;-72
2023/08/11 02:45:22;;;;;;;7.22;3.60;;;16.00;99.90;;;;;;5002340;28;20033;-72
2023/08/11 02:47:49;;;;;;;5.82;2.88;;;16.00;99.90;;;;;;5006765;28;20049;-72
2023/08/11 02:50:15;;;;;;;5.43;2.70;;;16.00;99.90;;;;;;5010237;28;20429;-72
2023/08/11 02:52:40;;;;;;;5.82;2.95;;;15.90;99.90;;;;;;5009926;28;20056;-72
2023/08/11 02:55:07;;;;;;;3.53;2.30;;;15.90;99.90;;;;;;5007435;28;20030;-72
2023/08/11 02:57:34;;;;;;;4.22;2.90;;;15.90;99.90;;;;;;5009082;28;20088;-72
2023/08/11 02:59:59;;;;;;;4.65;2.83;;;15.90;99.90;;;;;;4993228;28;20030;-72
2023/08/11 03:02:26;;;;;;;7.68;3.17;;;15.90;99.90;;;;;;5004799;28;20044;-71
2023/08/11 03:04:52;;;;;;;3.80;2.70;;;15.80;99.90;;;;;;5005707;28;20052;-72
2023/08/11 03:07:18;;;;;;;5.40;2.88;;;15.80;99.90;;;;;;5009853;28;20030;-72
2023/08/11 03:09:43;;;;;;;4.72;3.03;;;15.80;99.90;;;;;;5010689;28;20087;-72
2023/08/11 03:12:09;;;;;;;3.90;2.63;;;15.80;99.90;;;;;;5007222;28;20078;-72
2023/08/11 03:14:36;;;;;;;5.20;2.80;;;15.80;99.90;;;;;;4996355;28;20034;-72
2023/08/11 03:17:05;;;;;;;3.35;2.60;;;15.80;99.90;;;;;;5008210;28;20044;-72
2023/08/11 03:19:32;;;;;;;6.38;3.15;;;15.80;99.90;;;;;;4988647;28;20029;-72
2023/08/11 03:21:58;;;;;;;4.57;2.63;;;15.80;99.90;;;;;;5009377;28;20046;-72
2023/08/11 03:24:24;;;;;;;6.35;2.80;;;15.70;99.90;;;;;;4991628;28;20030;-71
2023/08/11 03:26:50;;;;;;;6.07;3.53;;;15.80;99.90;;;;;;5009315;28;20034;-74
2023/08/11 03:29:15;;;;;;;5.78;3.28;;;15.80;99.90;;;;;;5012037;28;20022;-73
2023/08/11 03:31:41;;;;;;;5.30;2.70;;;15.70;99.90;;;;;;4995583;28;20034;-73
2023/08/11 03:34:07;;;;;;;7.70;3.10;;;15.70;99.90;;;;;;5006108;28;20453;-72
2023/08/11 03:36:33;;;;;;;6.18;2.90;;;15.70;99.90;;;;;;5005755;28;20044;-72
2023/08/11 03:38:58;;;;;;;4.32;2.55;;;15.70;99.90;;;;;;4995541;28;20038;-72
2023/08/11 03:41:24;;;;;;;6.10;2.95;;;15.70;99.90;;;;;;4993048;28;20139;-72
2023/08/11 03:43:50;;;;;;;8.38;3.28;;;15.70;99.90;;;;;;5009669;28;21706;-72
2023/08/11 03:46:15;;;;;;;6.70;3.47;;;15.70;99.90;;;;;;5009832;28;20041;-72
2023/08/11 03:48:42;;;;;;;4.20;2.88;;;15.60;99.90;;;;;;5011080;28;20053;-73
2023/08/11 03:51:08;;;;;;;6.03;2.97;;;15.70;99.90;;;;;;4994131;28;20041;-73
2023/08/11 03:53:34;;;;;;;10.63;3.15;;;15.70;99.90;;;;;;5006642;28;20053;-73
2023/08/11 03:55:59;;;;;;;5.05;2.90;;;15.70;99.90;;;;;;5007748;28;20037;-73
2023/08/11 03:58:25;;;;;;;6.25;3.70;;;15.60;99.90;;;;;;5007684;28;20518;-73
2023/08/11 04:00:51;;;;;;;7.85;3.22;;;15.70;99.90;;;;;;5006538;28;20113;-73
2023/08/11 04:03:16;;;;;;;8.10;2.85;;;15.60;99.90;;;;;;5006472;28;20524;-73
2023/08/11 04:05:42;;;;;;;4.05;2.55;;;15.60;99.90;;;;;;5004321;28;20030;-73
2023/08/11 04:08:08;;;;;;;7.30;2.72;;;15.60;99.90;;;;;;4989419;28;20065;-73
2023/08/11 04:10:37;;;;;;;5.07;2.58;;;15.60;99.90;;;;;;5004226;28;20053;-73
2023/08/11 04:13:04;;;;;;;5.10;2.90;;;15.60;99.90;;;;;;5006861;28;20058;-73
2023/08/11 04:15:31;;;;;;;7.93;2.92;;;15.50;99.90;;;;;;5000725;28;20429;-73
2023/08/11 04:17:56;;;;;;;9.02;3.30;;;15.50;99.90;;;;;;5007027;28;20428;-73
2023/08/11 04:20:22;;;;;;;9.38;3.72;;;15.50;99.90;;;;;;5004355;28;20029;-73
2023/08/11 04:22:48;;;;;;;15.50;4.07;;;15.50;99.90;;;;;;4988873;28;20026;-73
2023/08/11 04:25:13;;;;;;;10.75;3.83;;;15.40;99.90;;;;;;5007548;28;20034;-72
2023/08/11 04:27:39;;;;;;;8.93;3.60;;;15.40;99.90;;;;;;4989531;28;20036;-72
2023/08/11 04:30:06;;;;;;;9.55;3.38;;;15.40;99.90;;;;;;5005475;28;20029;-72
2023/08/11 04:32:32;;;;;;;11.48;3.55;;;15.40;99.90;;;;;;5004422;28;20389;-73
2023/08/11 04:34:58;;;;;;;15.38;3.95;;;15.40;99.90;;;;;;5012751;28;20030;-73
2023/08/11 04:37:23;;;;;;;11.73;3.42;;;15.40;99.90;;;;;;5003444;28;20069;-73
2023/08/11 04:39:49;;;;;;;12.57;3.88;;;15.40;99.90;;;;;;5014936;28;20038;-73
2023/08/11 04:42:15;;;;;;;6.22;2.92;;;15.40;99.90;;;;;;5012224;28;20058;-73
2023/08/11 04:44:40;;;;;;;9.68;3.70;;;15.40;99.90;;;;;;4993870;28;20065;-72
2023/08/11 04:47:06;;;;;;;9.57;4.15;;;15.40;99.90;;;;;;5009682;28;20033;-73
2023/08/11 04:49:35;;;;;;;10.70;3.88;;;15.40;99.90;;;;;;5003504;28;20372;-74
2023/08/11 04:52:01;;;;;;;13.60;3.67;;;15.40;99.90;;;;;;5010314;28;20030;-73
2023/08/11 04:54:27;;;;;;;10.05;4.30;;;15.40;99.90;;;;;;5010793;28;20393;-73
2023/08/11 04:56:54;;;;;;;8.15;3.50;;;15.40;99.90;;;;;;5005762;28;20445;-74
2023/08/11 04:59:20;;;;;;;8.20;3.03;;;15.40;99.90;;;;;;4993544;28;20076;-73
2023/08/11 05:01:45;;;;;;;6.20;2.80;;;15.40;99.90;;;;;;4992850;28;20045;-74
2023/08/11 05:04:12;;;;;;;7.60;3.47;;;15.40;99.90;;;;;;5011044;28;20101;-74
2023/08/11 05:06:38;;;;;;;9.98;3.75;;;15.50;99.90;;;;;;5025170;23;20201;-70
2023/08/11 05:09:03;;;;;;;7.63;3.97;;;15.50;99.90;;;;;;5000102;28;20113;-77
2023/08/11 05:11:29;;;;;;;8.43;3.25;;;15.60;99.90;;;;;;4996756;28;20491;-76
2023/08/11 05:13:55;;;;;;;6.15;3.05;;;15.60;99.90;;;;;;4996477;28;20496;-77
2023/08/11 05:16:21;;;;;;;7.55;3.25;;;15.70;99.90;;;;;;4981329;28;20058;-77
2023/08/11 05:18:47;;;;;;;7.78;4.00;;;15.90;99.90;;;;;;4997336;28;20903;-77
2023/08/11 05:21:13;;;;;;;13.68;4.07;;;15.90;99.90;;;;;;4990907;28;20379;-77
2023/08/11 05:23:39;;;;;;;5.35;3.58;;;16.10;99.90;;;;;;4996169;28;20079;-77
2023/08/11 05:26:05;;;;;;;7.43;3.80;;;16.10;99.90;;;;;;4997732;28;20153;-77
2023/08/11 05:28:31;;;;;;;6.20;3.50;;;16.30;99.90;;;;;;4999626;28;20042;-70
2023/08/11 05:30:56;;;;;;;6.82;3.70;;;16.40;99.90;;;;;;5002109;28;20030;-70
2023/08/11 05:33:24;;;;;;;6.43;3.80;;;16.50;99.90;;;;;;5003125;28;20022;-71
2023/08/11 05:35:49;;;;;;;8.23;3.95;;;16.60;99.90;;;;;;5006188;28;20047;-71
2023/08/11 05:38:15;;;;;;;6.97;3.90;;;16.70;99.90;;;;;;5008338;28;20022;-71
2023/08/11 05:40:42;;;;;;;6.25;3.63;;;16.70;99.90;;;;;;5004774;28;20136;-71
2023/08/11 05:43:08;;;;;;;4.80;3.42;;;16.90;99.90;;;;;;5006791;28;20036;-71
2023/08/11 05:45:34;;;;;;;8.30;3.90;;;16.90;99.90;;;;;;4998059;28;20026;-71
2023/08/11 05:47:59;;;;;;;6.93;4.00;;;17.10;99.90;;;;;;4998217;28;20034;-72
2023/08/11 05:50:25;;;;;;;7.70;3.85;;;17.00;99.90;;;;;;4987391;28;20031;-71
2023/08/11 05:52:51;;;;;;;6.97;3.95;;;17.00;99.90;;;;;;5000730;28;20033;-70
2023/08/11 05:55:16;;;;;;;8.43;4.53;;;17.10;99.90;;;;;;5000220;28;20030;-71
2023/08/11 05:57:42;;;;;;;8.65;5.13;;;17.20;99.90;;;;;;4992915;28;20107;-72
2023/08/11 06:00:09;;;;;;;9.18;4.10;;;17.30;99.90;;;;;;5000257;28;20605;-74
2023/08/11 06:02:34;;;;;;;10.40;4.32;;;17.40;99.90;;;;;;5001870;28;20029;-71
2023/08/11 06:05:00;;;;;;;7.80;3.75;;;17.50;99.90;;;;;;5001524;28;20026;-70
2023/08/11 06:07:25;;;;;;;7.93;4.10;;;17.60;99.90;;;;;;4997436;28;20396;-70
2023/08/11 06:09:51;;;;;;;6.78;4.05;;;17.60;99.90;;;;;;5001541;28;20295;-71
2023/08/11 06:12:17;;;;;;;7.18;3.83;;;17.70;99.90;;;;;;5002682;28;20412;-71
2023/08/11 06:14:42;;;;;;;8.48;4.57;;;17.80;99.90;;;;;;5002580;28;20102;-71
2023/08/11 06:17:08;;;;;;;7.25;4.40;;;17.90;99.90;;;;;;4985500;28;20370;-71
2023/08/11 06:19:33;;;;;;;7.25;3.45;;;18.00;99.90;;;;;;5004900;28;20061;-71
2023/08/11 06:21:59;;;;;;;7.38;3.90;;;18.10;99.90;;;;;;4996654;28;20370;-71
2023/08/11 06:24:25;;;;;;;4.95;3.40;;;18.10;99.90;;;;;;4978451;28;20033;-71
2023/08/11 06:26:51;;;;;;;5.07;3.15;;;18.20;99.90;;;;;;5003574;28;20034;-70
2023/08/11 06:29:17;;;;;;;6.95;3.83;;;18.20;99.90;;;;;;5003585;28;20069;-71
2023/08/11 06:31:43;;;;;;;6.05;3.35;;;18.30;99.90;;;;;;5003285;28;20034;-70
2023/08/11 06:34:09;;;;;;;6.20;3.58;;;18.30;99.90;;;;;;5002485;28;20038;-71
2023/08/11 06:36:34;;;;;;;9.43;3.88;;;18.40;99.90;;;;;;4999957;28;20055;-71
2023/08/11 06:39:00;;;;;;;4.45;3.03;;;18.50;99.90;;;;;;4994838;28;20315;-71
2023/08/11 06:41:26;;;;;;;8.38;3.17;;;18.50;99.90;;;;;;4997053;28;20044;-71
2023/08/11 06:43:53;;;;;;;5.22;3.22;;;18.60;99.90;;;;;;4984152;28;20114;-70
2023/08/11 06:46:18;;;;;;;7.28;3.60;;;18.60;99.90;;;;;;5008181;28;20022;-69
2023/08/11 06:48:44;;;;;;;7.53;3.35;;;18.60;99.90;;;;;;4988570;28;20053;-71
2023/08/11 06:51:09;;;;;;;8.27;3.30;;;18.70;99.90;;;;;;5003428;28;20480;-71
2023/08/11 06:53:35;;;;;;;6.88;3.13;;;18.70;99.90;;;;;;5001713;28;20060;-69
2023/08/11 06:56:01;;;;;;;7.32;3.47;;;18.70;99.90;;;;;;5001931;28;20507;-69
2023/08/11 06:58:26;;;;;;;9.63;3.47;;;18.70;99.90;;;;;;5003395;28;20105;-71
2023/08/11 07:00:52;;;;;;;6.32;3.42;;;18.80;99.90;;;;;;5002143;28;20041;-71
2023/08/11 07:03:18;;;;;;;5.82;3.25;;;18.90;99.90;;;;;;5003651;28;20034;-71
2023/08/11 07:05:43;;;;;;;5.63;2.92;;;18.90;99.90;;;;;;5003026;28;20072;-70
2023/08/11 07:08:09;;;;;;;9.82;3.13;;;18.90;99.90;;;;;;4988384;28;20174;-70
2023/08/11 07:10:35;;;;;;;6.38;2.90;;;19.00;99.90;;;;;;5005992;28;20037;-71
2023/08/11 07:13:01;;;;;;;8.40;3.60;;;19.00;99.90;;;;;;5002349;28;20599;-69
2023/08/11 07:15:27;;;;;;;6.07;3.25;;;19.10;99.90;;;;;;4985835;28;20124;-71
2023/08/11 07:17:52;;;;;;;6.63;3.38;;;19.10;99.90;;;;;;5004009;28;20041;-71
2023/08/11 07:20:18;;;;;;;4.47;3.15;;;19.20;99.90;;;;;;5003511;28;20384;-71
2023/08/11 07:22:44;;;;;;;6.10;3.17;;;19.20;99.90;;;;;;4998675;28;20046;-71
2023/08/11 07:25:09;;;;;;;4.63;3.33;;;19.20;99.90;;;;;;5008056;28;20018;-71
2023/08/11 07:27:35;;;;;;;7.15;4.18;;;19.30;99.90;;;;;;5001336;28;20427;-71
2023/08/11 07:30:01;;;;;;;7.03;3.60;;;19.40;99.90;;;;;;5003958;28;20490;-71
2023/08/11 07:32:26;;;;;;;7.88;4.30;;;19.50;99.90;;;;;;5004327;28;20021;-71
2023/08/11 07:34:52;;;;;;;8.25;4.18;;;19.50;99.90;;;;;;5007460;28;20437;-71
2023/08/11 07:37:17;;;;;;;7.22;4.35;;;19.60;99.90;;;;;;4991087;28;20149;-71
2023/08/11 07:39:43;;;;;;;7.55;4.50;;;19.60;99.90;;;;;;5003547;28;20061;-71
2023/08/11 07:42:09;;;;;;;9.65;4.53;;;19.70;99.90;;;;;;5004736;28;20037;-71
2023/08/11 07:44:34;;;;;;;10.05;3.95;;;19.80;99.90;;;;;;5005294;28;20018;-71
2023/08/11 07:50:22;;;;;;;6.05;4.25;;;19.90;99.90;;;;;;4962679;28;20070;-71
2023/08/11 07:52:48;;;;;;;8.07;4.10;;;20.00;99.90;;;;;;4961546;28;20027;-71
2023/08/11 07:55:13;;;;;;;9.57;4.50;;;20.00;99.90;;;;;;4965014;28;20029;-71
2023/08/11 07:57:39;;;;;;;8.52;4.00;;;20.10;99.90;;;;;;4967717;28;20481;-71
2023/08/11 08:00:06;;;;;;;7.15;4.07;;;20.20;99.90;;;;;;4966402;28;20030;-71
2023/08/11 08:02:32;;;;;;;7.90;4.20;;;20.30;99.90;;;;;;4967554;28;20052;-71
2023/08/11 08:04:57;;;;;;;4.80;3.15;;;20.40;99.90;;;;;;4966396;28;20058;-71
2023/08/11 08:07:23;;;;;;;4.65;3.17;;;20.50;99.90;;;;;;4968272;28;20031;-71
2023/08/11 08:09:48;;;;;;;4.70;3.55;;;20.50;99.90;;;;;;4965777;28;20039;-71
2023/08/11 08:12:15;;;;;;;9.27;3.38;;;20.60;99.90;;;;;;4969517;28;20114;-71
2023/08/11 08:14:42;;;;;;;5.55;3.85;;;20.70;99.90;;;;;;4950081;28;20035;-71
2023/08/11 08:17:08;;;;;;;7.72;3.70;;;20.80;99.90;;;;;;4966163;28;20039;-71
2023/08/11 08:19:33;;;;;;;7.45;3.70;;;20.90;99.90;;;;;;4968134;28;20093;-71
2023/08/11 08:21:59;;;;;;;4.35;3.40;;;21.00;99.90;;;;;;4966134;28;20054;-71
2023/08/11 08:24:25;;;;;;;5.65;3.85;;;21.10;99.90;;;;;;4965725;28;20536;-71
2023/08/11 08:26:51;;;;;;;6.38;3.78;;;21.20;99.90;;;;;;4964453;28;20026;-71
2023/08/11 08:29:17;;;;;;;6.00;3.60;;;21.30;99.90;;;;;;4967750;28;20113;-71
2023/08/11 08:31:42;;;;;;;6.40;3.78;;;21.40;99.90;;;;;;4966650;28;20109;-71
2023/08/11 08:34:08;;;;;;;5.90;3.88;;;21.40;99.90;;;;;;4970415;28;20035;-71
2023/08/11 08:36:34;;;;;;;4.75;3.40;;;21.50;99.90;;;;;;4947050;28;20041;-71
2023/08/11 08:38:59;;;;;;;7.68;3.58;;;21.70;99.90;;;;;;4951067;28;20486;-71
2023/08/11 08:41:30;;;;;;;9.07;3.53;;;21.80;99.90;;;;;;4967534;28;20030;-71
2023/08/11 08:43:59;;;;;;;4.90;3.85;;;21.90;99.90;;;;;;4966905;28;20041;-71
2023/08/11 08:46:30;;;;;;;10.73;3.40;;;22.00;99.90;;;;;;4965660;28;20069;-72
2023/08/11 08:49:07;;;;;;;8.65;4.38;;;22.00;99.90;;;;;;4966529;28;20031;-72
2023/08/11 08:51:35;;;;;;;5.97;4.32;;;22.10;99.90;;;;;;4948741;28;20035;-72
2023/08/11 08:54:01;;;;;;;6.00;3.80;;;22.10;99.90;;;;;;4966806;28;20031;-72
2023/08/11 08:56:27;;;;;;;5.90;3.45;;;22.20;99.90;;;;;;4965150;28;20093;-72
2023/08/11 08:58:52;;;;;;;6.70;3.63;;;22.20;99.90;;;;;;4967355;28;20082;-71
2023/08/11 09:01:18;;;;;;;7.43;3.70;;;22.30;99.90;;;;;;4950252;28;20026;-71
2023/08/11 09:03:45;;;;;;;8.07;3.25;;;22.40;99.90;;;;;;4966321;28;20031;-72
2023/08/11 09:06:12;;;;;;;5.15;3.25;;;22.50;99.90;;;;;;4947156;28;20097;-71
2023/08/11 09:08:39;;;;;;;5.70;3.40;;;22.60;99.90;;;;;;4967528;28;20029;-72
2023/08/11 09:11:05;;;;;;;6.53;3.90;;;22.60;99.90;;;;;;4968910;28;20104;-72
2023/08/11 09:13:32;;;;;;;7.15;3.83;;;22.70;99.90;;;;;;4964866;28;20043;-72
2023/08/11 09:15:57;;;;;;;4.05;3.15;;;22.70;99.90;;;;;;4963959;28;20027;-71
2023/08/11 09:18:23;;;;;;;5.72;2.80;;;22.80;99.90;;;;;;4968955;28;20019;-72
2023/08/11 09:20:49;;;;;;;5.80;3.30;;;22.90;99.90;;;;;;4948757;28;20042;-71
2023/08/11 09:23:18;;;;;;;9.45;3.80;;;23.00;99.90;;;;;;4950667;28;20051;-72
2023/08/11 09:25:45;;;;;;;5.80;3.67;;;23.00;99.90;;;;;;4951611;28;20039;-72
2023/08/11 09:28:11;;;;;;;6.13;3.50;;;23.10;99.90;;;;;;4968303;28;20058;-72
2023/08/11 09:30:38;;;;;;;7.00;3.45;;;23.30;99.90;;;;;;4965384;28;20063;-72
2023/08/11 09:33:07;;;;;;;4.82;3.08;;;23.30;99.90;;;;;;4969079;28;20073;-72
2023/08/11 09:35:33;;;;;;;5.47;3.40;;;23.40;99.90;;;;;;4967011;28;20382;-71
2023/08/11 09:38:00;;;;;;;7.10;3.50;;;23.50;99.90;;;;;;4959970;28;20054;-71
2023/08/11 09:40:26;;;;;;;7.15;3.78;;;23.60;99.90;;;;;;4966199;28;20043;-71
2023/08/11 09:42:56;;;;;;;4.57;3.60;;;23.60;99.90;;;;;;4967062;28;20027;-71
2023/08/11 09:45:22;;;;;;;7.03;3.47;;;23.70;99.90;;;;;;4949105;28;20031;-72
2023/08/11 09:47:48;;;;;;;5.50;3.25;;;23.80;99.90;;;;;;4968248;28;20445;-71
2023/08/11 09:50:14;;;;;;;5.30;3.25;;;23.90;99.90;;;;;;4964214;28;20030;-72
2023/08/11 09:52:42;;;;;;;3.58;2.70;;;24.00;99.90;;;;;;4967418;28;20027;-71
2023/08/11 09:55:10;;;;;;;5.13;3.10;;;24.10;99.90;;;;;;4968303;28;20078;-71
2023/08/11 09:57:43;;;;;;;4.78;2.90;;;24.10;99.90;;;;;;4968002;28;20022;-71
2023/08/11 10:00:25;;;;;;;5.20;3.53;;;24.20;99.40;;;;;;4954968;28;20567;-71
2023/08/11 10:03:01;;;;;;;5.47;3.28;;;24.30;98.20;;;;;;4966013;28;20845;-71
2023/08/11 10:05:29;;;;;;;3.95;2.95;;;24.40;97.70;;;;;;4965654;28;20367;-71
2023/08/11 10:07:56;;;;;;;4.82;2.95;;;24.50;97.50;;;;;;4969529;28;20035;-72
2023/08/11 10:10:23;;;;;;;5.32;2.85;;;24.50;97.30;;;;;;4950973;28;20118;-71
2023/08/11 10:12:56;;;;;;;5.53;3.00;;;24.60;97.10;;;;;;4954487;28;20038;-71
2023/08/11 10:15:22;;;;;;;3.08;2.65;;;24.60;97.10;;;;;;4970682;28;20133;-71
2023/08/11 10:17:49;;;;;;;3.70;3.05;;;24.60;97.00;;;;;;4956665;28;20034;-71
2023/08/11 10:20:15;;;;;;;6.65;2.90;;;24.70;96.80;;;;;;4970323;28;20338;-71
2023/08/11 10:22:41;;;;;;;5.43;2.72;;;24.90;96.50;;;;;;4971216;28;20055;-71
2023/08/11 10:25:08;;;;;;;4.70;2.90;;;25.00;96.20;;;;;;4971728;28;20054;-71
2023/08/11 10:27:35;;;;;;;3.20;2.08;;;25.00;95.80;;;;;;4972374;28;20425;-71
2023/08/11 10:30:04;;;;;;;4.88;2.78;;;25.20;95.00;;;;;;4956640;28;20477;-72
2023/08/11 10:32:34;;;;;;;2.97;2.17;;;25.20;94.90;;;;;;4952156;28;20035;-71
2023/08/11 10:35:00;;;;;;;2.67;2.10;;;25.30;94.50;;;;;;4962935;28;20081;-71
2023/08/11 10:37:30;;;;;;;3.58;2.38;;;25.40;93.90;;;;;;4966365;28;20421;-71
2023/08/11 10:40:05;;;;;;;3.22;2.60;;;25.40;93.70;;;;;;4970932;28;20382;-71
2023/08/11 10:42:32;;;;;;;2.72;2.15;;;25.40;93.50;;;;;;4972385;28;20046;-71
2023/08/11 10:45:09;;;;;;;2.10;1.77;;;25.50;93.70;;;;;;4971860;28;20061;-71
2023/08/11 10:48:07;;;;;;;4.03;2.20;;;25.60;93.40;;;;;;4970897;28;20034;-71
2023/08/11 10:50:33;;;;;;;3.85;1.83;;;25.70;93.10;;;;;;4970505;28;20023;-71
2023/08/11 10:53:31;;;;;;;3.05;2.20;;;25.80;92.90;;;;;;4969400;28;20027;-71
2023/08/11 10:56:01;;;;;;;4.35;2.20;;;25.80;92.40;;;;;;4935389;28;20039;-71
2023/08/11 10:58:29;;;;;;;4.43;2.25;;;25.90;92.40;;;;;;4970701;28;20025;-71
2023/08/11 11:00:56;;;;;;;2.75;2.40;;;25.90;92.10;;;;;;4954229;28;20119;-71
2023/08/11 11:03:22;;;;;;;4.10;2.40;;;25.90;91.90;;;;;;4969721;28;20046;-71
2023/08/11 11:05:48;;;;;;;4.50;2.20;;;25.90;92.00;;;;;;4971775;28;20495;-71
2023/08/11 11:08:14;;;;;;;3.45;1.90;;;25.90;91.90;;;;;;4957548;28;20027;-73
2023/08/11 11:10:41;;;;;;;4.38;2.50;;;26.00;91.70;;;;;;4972265;28;20034;-73
2023/08/11 11:13:07;;;;;;;4.95;1.98;;;26.00;91.30;;;;;;4971036;28;20084;-73
2023/08/11 11:15:33;;;;;;;2.25;1.92;;;26.10;91.30;;;;;;4971050;28;20537;-73
2023/08/11 11:17:59;;;;;;;3.53;2.15;;;26.20;91.00;;;;;;4972426;28;20027;-73
2023/08/11 11:20:25;;;;;;;4.88;1.70;;;26.30;90.50;;;;;;4970105;28;20517;-73
2023/08/11 11:22:51;;;;;;;2.22;1.80;;;26.20;90.50;;;;;;4968852;28;20029;-72
2023/08/11 11:25:18;;;;;;;2.72;2.10;;;26.30;90.30;;;;;;4971565;28;20098;-72
2023/08/11 11:27:44;;;;;;;2.45;1.85;;;26.30;90.10;;;;;;4953972;28;20105;-72
2023/08/11 11:30:10;;;;;;;6.30;2.50;;;26.30;90.00;;;;;;4970942;28;20078;-72
2023/08/11 11:32:37;;;;;;;4.15;2.15;;;26.40;89.60;;;;;;4969301;28;20093;-73
2023/08/11 11:35:04;;;;;;;2.20;1.50;;;26.50;88.90;;;;;;4953264;28;20030;-72
2023/08/11 11:37:32;;;;;;;1.75;1.48;;;26.60;89.00;;;;;;4952861;28;20560;-73
2023/08/11 11:39:58;;;;;;;2.40;1.70;;;26.60;88.90;;;;;;4969448;28;20097;-72
2023/08/11 11:42:29;;;;;;;2.47;1.65;;;26.70;88.50;;;;;;4952952;28;20025;-73
2023/08/11 11:44:55;;;;;;;2.00;1.75;;;26.80;88.10;;;;;;4969485;28;20018;-72
2023/08/11 11:47:21;;;;;;;2.25;1.60;;;26.80;87.80;;;;;;4967446;28;20063;-73
2023/08/11 11:49:57;;;;;;;2.33;1.50;;;26.70;87.60;;;;;;4951059;28;20073;-73
2023/08/11 11:52:25;;;;;;;3.50;1.90;;;26.70;87.60;;;;;;4970406;28;20030;-73
2023/08/11 11:54:55;;;;;;;2.08;1.65;;;26.70;88.10;;;;;;4967200;28;20066;-73
2023/08/11 11:57:21;;;;;;;2.00;1.38;;;26.80;86.80;;;;;;4970692;28;20026;-72
2023/08/11 11:59:48;;;;;;;2.30;1.58;;;26.70;86.80;;;;;;4970835;28;20025;-72
2023/08/11 12:02:15;;;;;;;2.50;1.88;;;26.70;86.90;;;;;;4970172;28;20031;-73
2023/08/11 12:04:47;;;;;;;3.03;1.90;;;26.70;87.60;;;;;;4969985;28;20077;-72
2023/08/11 12:07:29;;;;;;;3.22;1.85;;;26.70;88.10;;;;;;4953952;28;20458;-72
2023/08/11 12:09:54;;;;;;;4.63;1.65;;;26.70;87.50;;;;;;4954755;28;20050;-73
2023/08/11 12:12:24;;;;;;;2.05;1.50;;;26.70;87.00;;;;;;4952934;28;20018;-72
2023/08/11 12:14:50;;;;;;;1.95;1.48;;;26.80;87.00;;;;;;4968275;28;20022;-72
2023/08/11 12:17:16;;;;;;;3.47;1.75;;;26.90;87.00;;;;;;4969599;28;20379;-72
2023/08/11 12:19:43;;;;;;;2.50;1.65;;;27.00;86.30;;;;;;4968665;28;20045;-72
2023/08/11 12:22:09;;;;;;;1.98;1.55;;;27.00;85.60;;;;;;4970134;28;20106;-73
2023/08/11 12:24:34;;;;;;;2.05;1.40;;;27.00;85.10;;;;;;4970478;28;20114;-72
2023/08/11 12:27:00;;;;;;;2.28;1.60;;;27.00;85.30;;;;;;4951831;28;20019;-72
2023/08/11 12:29:28;;;;;;;2.50;2.05;;;27.10;84.90;;;;;;4950312;28;20045;-72
2023/08/11 12:31:53;;;;;;;3.50;1.63;;;27.20;84.70;;;;;;4969864;28;20088;-73
2023/08/11 12:34:19;;;;;;;2.00;1.50;;;27.20;84.90;;;;;;4952144;28;20480;-72
2023/08/11 12:36:45;;;;;;;2.75;1.30;;;27.20;83.70;;;;;;4950025;28;20041;-72
2023/08/11 12:39:10;;;;;;;1.65;1.50;;;27.30;83.40;;;;;;4967938;28;20066;-72
2023/08/11 12:41:38;;;;;;;2.60;1.63;;;27.40;83.20;;;;;;4967846;28;20031;-72
2023/08/11 12:44:04;;;;;;;5.97;1.60;;;27.40;83.50;;;;;;4970726;28;20073;-72
2023/08/11 12:46:30;;;;;;;3.40;1.42;;;27.60;83.70;;;;;;4968050;28;20038;-73